Mylo, North Dakota
Current Conditions -  °F | °C
As of 2:35 AM on Thursday 18 Dec 2014 (Local Time) from K06D Reporting Station
Clear Clear  
Wind Chill: -7°   Ceiling: Unl
Heat Index:   Visibility: 10mi
Dew Point:   Wind: 7mph
Humidity: 92%   Direction: 190°S
Pressure: 30.15"   Gusts: NA
Location:  48.64°N, 99.62°W
Report Text: K06D 180835Z AUTO 19006KT 10SM CLR M15/M16 A3015 RMK AO2
Loading
Personal Weather Stations






























Interactive Weather Map New forecast layout! Learn more

10-Day Weather Forecast

Advertisements
Track Severe Weather on mobile